createdAt,value
2018-05-29T00:00:06.592Z,97.80
2018-05-29T00:01:06.468Z,97.61
2018-05-29T00:02:06.354Z,97.89
2018-05-29T00:03:06.227Z,97.89
2018-05-29T00:04:06.107Z,98.85
2018-05-29T00:05:05.984Z,97.80
2018-05-29T00:06:05.862Z,98.85
2018-05-29T00:07:05.743Z,97.61
2018-05-29T00:08:05.619Z,98.28
2018-05-29T00:09:05.495Z,98.66
2018-05-29T00:10:05.373Z,98.75
2018-05-29T00:11:05.251Z,98.08
2018-05-29T00:12:05.133Z,98.75
2018-05-29T00:13:05.010Z,97.80
2018-05-29T00:14:04.889Z,97.89
2018-05-29T00:15:04.765Z,97.71
2018-05-29T00:16:04.643Z,98.18
2018-05-29T00:17:04.520Z,98.28
2018-05-29T00:18:04.399Z,98.08
2018-05-29T00:19:04.280Z,97.89
2018-05-29T00:20:04.157Z,98.18
2018-05-29T00:21:04.031Z,98.75
2018-05-29T00:22:03.914Z,98.08
2018-05-29T00:23:03.789Z,97.89
2018-05-29T00:24:03.669Z,98.94
2018-05-29T00:25:03.542Z,98.28
2018-05-29T00:26:03.421Z,98.18
2018-05-29T00:27:03.300Z,98.85
2018-05-29T00:28:03.178Z,98.47
2018-05-29T00:29:03.059Z,97.89
2018-05-29T00:30:02.936Z,98.08
2018-05-29T00:31:02.814Z,99.23
2018-05-29T00:32:02.691Z,98.08
2018-05-29T00:33:02.566Z,98.18
2018-05-29T00:34:02.461Z,98.18
2018-05-29T00:35:02.325Z,98.66
2018-05-29T00:36:02.208Z,97.13
2018-05-29T00:37:02.077Z,97.94
2018-05-29T00:38:01.959Z,98.85
2018-05-29T00:39:01.835Z,98.85
2018-05-29T00:40:01.714Z,98.71
2018-05-29T00:41:01.593Z,97.85
2018-05-29T00:42:01.476Z,98.23
2018-05-29T00:43:01.352Z,97.56
2018-05-29T00:44:01.227Z,97.37
2018-05-29T00:45:01.104Z,97.56
2018-05-29T00:46:00.984Z,96.80
2018-05-29T00:47:00.863Z,98.33
2018-05-29T00:48:00.739Z,98.18
2018-05-29T00:49:00.620Z,97.03
2018-05-29T00:50:00.494Z,98.75
2018-05-29T00:51:00.376Z,98.33
2018-05-29T00:52:00.249Z,98.42
2018-05-29T00:53:00.130Z,98.99
2018-05-29T00:54:00.009Z,98.80
2018-05-29T00:54:59.887Z,99.48
2018-05-29T00:55:59.761Z,98.23
2018-05-29T00:56:59.647Z,98.85
2018-05-29T00:57:59.522Z,98.33
2018-05-29T00:58:59.396Z,98.18
2018-05-29T00:59:59.273Z,98.37
2018-05-29T01:00:59.156Z,97.28
2018-05-29T01:01:59.030Z,97.13
2018-05-29T01:02:58.912Z,98.75
2018-05-29T01:03:58.789Z,97.80
2018-05-29T01:04:58.665Z,97.13
2018-05-29T01:05:58.547Z,97.99
2018-05-29T01:06:58.422Z,97.32
2018-05-29T01:07:58.305Z,98.28
2018-05-29T01:08:58.178Z,99.71
2018-05-29T01:09:58.057Z,98.08
2018-05-29T01:10:57.934Z,97.32
2018-05-29T01:11:57.814Z,98.47
2018-05-29T01:12:57.690Z,98.28
2018-05-29T01:13:57.569Z,97.99
2018-05-29T01:14:57.447Z,97.80
2018-05-29T01:15:57.333Z,97.89
2018-05-29T01:16:57.204Z,98.37
2018-05-29T01:17:57.081Z,98.18
2018-05-29T01:18:56.960Z,99.62
2018-05-29T01:19:56.837Z,98.18
2018-05-29T01:20:56.718Z,98.28
2018-05-29T01:21:56.593Z,98.57
2018-05-29T01:22:56.472Z,98.37
2018-05-29T01:23:56.351Z,99.99
2018-05-29T01:24:56.230Z,99.14
2018-05-29T01:25:56.108Z,98.18
2018-05-29T01:26:55.986Z,99.33
2018-05-29T01:27:55.861Z,98.47
2018-05-29T01:28:55.740Z,99.04
2018-05-29T01:29:55.618Z,99.62
2018-05-29T01:30:55.496Z,98.23
2018-05-29T01:31:55.373Z,98.42
2018-05-29T01:32:55.251Z,98.04
2018-05-29T01:33:55.129Z,98.52
2018-05-29T01:34:55.009Z,96.22
2018-05-29T01:35:54.888Z,96.46
2018-05-29T01:36:54.763Z,95.61
2018-05-29T01:37:54.643Z,94.55
2018-05-29T01:38:54.519Z,90.59
2018-05-29T01:39:54.398Z,86.20
2018-05-29T01:40:54.278Z,83.14
2018-05-29T01:41:54.154Z,82.57
2018-05-29T01:42:54.033Z,82.86
2018-05-29T01:43:53.908Z,81.29
2018-05-29T01:44:53.784Z,82.43
2018-05-29T01:45:53.663Z,85.58
2018-05-29T01:46:53.541Z,76.56
2018-05-29T01:47:53.418Z,79.90
2018-05-29T01:48:53.305Z,82.19
2018-05-29T01:49:53.175Z,81.14
2018-05-29T01:50:53.053Z,80.85
2018-05-29T01:51:52.930Z,88.97
2018-05-29T01:52:52.806Z,89.92
2018-05-29T01:53:52.684Z,88.49
2018-05-29T01:54:52.568Z,91.36
2018-05-29T01:55:52.437Z,91.74
2018-05-29T01:56:52.318Z,89.92
2018-05-29T01:57:52.194Z,91.83
2018-05-29T01:58:52.071Z,95.65
2018-05-29T01:59:51.953Z,87.54
2018-05-29T02:00:51.825Z,91.83
2018-05-29T02:01:51.704Z,92.41
2018-05-29T02:02:51.582Z,92.50
2018-05-29T02:03:51.458Z,95.27
2018-05-29T02:04:51.338Z,97.56
2018-05-29T02:05:51.215Z,93.93
2018-05-29T02:06:51.098Z,92.02
2018-05-29T02:07:50.972Z,93.17
2018-05-29T02:08:50.846Z,92.97
2018-05-29T02:09:50.724Z,94.89
2018-05-29T02:10:50.601Z,93.26
2018-05-29T02:11:50.477Z,94.60
2018-05-29T02:12:50.357Z,99.99
2018-05-29T02:13:50.233Z,94.27
2018-05-29T02:14:50.111Z,93.50
2018-05-29T02:15:49.988Z,97.32
2018-05-29T02:16:49.867Z,97.03
2018-05-29T02:17:49.744Z,94.84
2018-05-29T02:18:49.622Z,94.41
2018-05-29T02:19:49.496Z,95.65
2018-05-29T02:20:49.377Z,92.31
2018-05-29T02:21:49.255Z,93.88
2018-05-29T02:22:49.131Z,95.22
2018-05-29T02:23:49.008Z,95.51
2018-05-29T02:24:48.889Z,99.99
2018-05-29T02:25:48.764Z,98.37
2018-05-29T02:26:48.644Z,95.79
2018-05-29T02:27:48.518Z,95.41
2018-05-29T02:28:48.397Z,98.32
2018-05-29T02:29:48.276Z,91.45
2018-05-29T02:30:48.153Z,87.63
2018-05-29T02:31:48.031Z,84.20
2018-05-29T02:32:47.908Z,79.48
2018-05-29T02:33:47.787Z,78.05
2018-05-29T02:34:47.666Z,72.23
2018-05-29T02:35:47.540Z,67.93
2018-05-29T02:36:47.421Z,66.98
2018-05-29T02:37:47.298Z,62.75
2018-05-29T02:38:47.177Z,55.41
2018-05-29T02:39:47.052Z,51.59
2018-05-29T02:40:46.932Z,51.21
2018-05-29T02:41:46.806Z,47.68
2018-05-29T02:42:46.684Z,50.45
2018-05-29T02:43:46.562Z,51.50
2018-05-29T02:44:46.439Z,55.98
2018-05-29T02:45:46.317Z,52.36
2018-05-29T02:46:46.199Z,45.87
2018-05-29T02:47:46.072Z,49.97
2018-05-29T02:48:45.952Z,50.63
2018-05-29T02:49:45.825Z,45.68
2018-05-29T02:50:45.704Z,45.97
2018-05-29T02:51:45.580Z,44.06
2018-05-29T02:52:45.457Z,47.68
2018-05-29T02:53:45.330Z,46.34
2018-05-29T02:54:45.208Z,48.16
2018-05-29T02:55:45.085Z,52.26
2018-05-29T02:56:44.966Z,50.54
2018-05-29T02:57:44.843Z,51.50
2018-05-29T02:58:44.716Z,48.44
2018-05-29T02:59:44.598Z,58.46
2018-05-29T03:00:44.470Z,56.07
2018-05-29T03:01:44.347Z,53.47
2018-05-29T03:02:44.223Z,49.85
2018-05-29T03:03:44.103Z,45.01
2018-05-29T03:04:43.979Z,44.99
2018-05-29T03:05:43.854Z,43.49
2018-05-29T03:06:43.734Z,41.86
2018-05-29T03:07:43.611Z,44.92
2018-05-29T03:08:43.489Z,51.12
2018-05-29T03:09:43.362Z,54.74
2018-05-29T03:10:43.239Z,54.55
2018-05-29T03:11:43.115Z,57.12
2018-05-29T03:12:42.992Z,60.55
2018-05-29T03:13:42.868Z,51.40
2018-05-29T03:14:42.745Z,58.26
2018-05-29T03:15:42.624Z,57.12
2018-05-29T03:16:42.499Z,53.69
2018-05-29T03:17:42.379Z,57.03
2018-05-29T03:18:42.260Z,54.45
2018-05-29T03:19:42.132Z,58.65
2018-05-29T03:20:42.008Z,63.42
2018-05-29T03:21:41.883Z,59.89
2018-05-29T03:22:41.762Z,58.55
2018-05-29T03:23:41.636Z,65.70
2018-05-29T03:24:41.516Z,61.04
2018-05-29T03:25:41.391Z,59.67
2018-05-29T03:26:41.271Z,57.76
2018-05-29T03:27:41.149Z,59.76
2018-05-29T03:28:41.023Z,61.70
2018-05-29T03:29:40.906Z,57.41
2018-05-29T03:30:40.776Z,54.83
2018-05-29T03:31:40.652Z,63.80
2018-05-29T03:32:40.530Z,62.46
2018-05-29T03:33:40.407Z,59.99
2018-05-29T03:34:40.285Z,62.75
2018-05-29T03:35:40.162Z,66.94
2018-05-29T03:36:40.035Z,66.38
2018-05-29T03:37:39.920Z,66.09
2018-05-29T03:38:39.789Z,65.80
2018-05-29T03:39:39.666Z,63.70
2018-05-29T03:40:39.543Z,62.08
2018-05-29T03:41:39.422Z,68.18
2018-05-29T03:42:39.297Z,69.90
2018-05-29T03:43:39.175Z,73.14
2018-05-29T03:44:39.050Z,70.57
2018-05-29T03:45:38.927Z,74.19
2018-05-29T03:46:38.805Z,66.18
2018-05-29T03:47:38.682Z,66.66
2018-05-29T03:48:38.558Z,72.00
2018-05-29T03:49:38.436Z,79.25
2018-05-29T03:50:38.313Z,72.86
2018-05-29T03:51:38.188Z,68.09
2018-05-29T03:52:38.065Z,74.96
2018-05-29T03:53:37.943Z,77.62
2018-05-29T03:54:37.819Z,75.34
2018-05-29T03:55:37.695Z,70.09
2018-05-29T03:56:37.571Z,69.33
2018-05-29T03:57:37.452Z,68.38
2018-05-29T03:58:37.325Z,70.09
2018-05-29T03:59:37.202Z,72.96
2018-05-29T04:00:37.082Z,81.73
2018-05-29T04:01:36.957Z,78.96
2018-05-29T04:02:36.831Z,77.15
2018-05-29T04:03:36.710Z,78.86
2018-05-29T04:04:36.590Z,73.33
2018-05-29T04:05:36.467Z,74.67
2018-05-29T04:06:36.343Z,78.86
2018-05-29T04:07:36.224Z,80.24
2018-05-29T04:08:36.097Z,80.72
2018-05-29T04:09:35.977Z,80.39
2018-05-29T04:10:35.852Z,76.01
2018-05-29T04:11:35.728Z,83.48
2018-05-29T04:12:35.604Z,82.06
2018-05-29T04:13:35.482Z,75.37
2018-05-29T04:14:35.358Z,76.90
2018-05-29T04:15:35.237Z,81.01
2018-05-29T04:16:35.113Z,84.25
2018-05-29T04:17:34.991Z,90.41
2018-05-29T04:18:34.870Z,88.92
2018-05-29T04:19:34.744Z,85.83
2018-05-29T04:20:34.624Z,95.03
2018-05-29T04:21:34.499Z,83.77
2018-05-29T04:22:34.377Z,80.91
2018-05-29T04:23:34.252Z,78.39
2018-05-29T04:24:34.131Z,80.87
2018-05-29T04:25:34.010Z,76.77
2018-05-29T04:26:33.886Z,72.19
2018-05-29T04:27:33.762Z,75.91
2018-05-29T04:28:33.638Z,70.00
2018-05-29T04:29:33.516Z,72.28
2018-05-29T04:30:33.394Z,72.28
2018-05-29T04:31:33.269Z,71.52
2018-05-29T04:32:33.145Z,73.52
2018-05-29T04:33:33.027Z,82.97
2018-05-29T04:34:32.903Z,75.43
2018-05-29T04:35:32.776Z,78.96
2018-05-29T04:36:32.659Z,81.73
2018-05-29T04:37:32.535Z,80.24
2018-05-29T04:38:32.597Z,78.14
2018-05-29T04:39:32.298Z,78.62
2018-05-29T04:40:32.162Z,84.34
2018-05-29T04:41:32.041Z,85.97
2018-05-29T04:42:31.915Z,72.42
2018-05-29T04:43:31.792Z,80.62
2018-05-29T04:44:31.685Z,91.31
2018-05-29T04:45:31.547Z,82.82
2018-05-29T04:46:31.430Z,92.74
2018-05-29T04:47:31.302Z,83.67
2018-05-29T04:48:31.179Z,85.77
2018-05-29T04:49:31.056Z,86.92
2018-05-29T04:50:30.944Z,98.75
2018-05-29T04:51:30.810Z,91.93
2018-05-29T04:52:30.687Z,85.91
2018-05-29T04:53:30.566Z,93.93
2018-05-29T04:54:30.441Z,87.21
2018-05-29T04:55:30.317Z,87.40
2018-05-29T04:56:30.251Z,90.93
2018-05-29T04:57:30.074Z,98.18
2018-05-29T04:58:29.949Z,90.36
2018-05-29T04:59:29.851Z,86.58
2018-05-29T05:00:29.705Z,86.39
2018-05-29T05:01:29.583Z,87.06
2018-05-29T05:02:29.507Z,84.67
2018-05-29T05:03:29.334Z,90.59
2018-05-29T05:04:29.213Z,84.39
2018-05-29T05:05:29.091Z,89.83
2018-05-29T05:06:28.968Z,85.82
2018-05-29T05:07:28.849Z,86.77
2018-05-29T05:08:28.722Z,88.59
2018-05-29T05:09:28.600Z,88.78
2018-05-29T05:10:28.477Z,93.36
2018-05-29T05:11:28.356Z,90.02
2018-05-29T05:12:28.231Z,94.51
2018-05-29T05:13:28.110Z,93.17
2018-05-29T05:14:27.989Z,94.41
2018-05-29T05:15:27.865Z,93.26
2018-05-29T05:16:27.742Z,95.12
2018-05-29T05:17:27.618Z,92.93
2018-05-29T05:18:27.498Z,90.54
2018-05-29T05:19:27.376Z,91.69
2018-05-29T05:20:27.253Z,94.93
2018-05-29T05:21:27.131Z,95.51
2018-05-29T05:22:27.011Z,95.12
2018-05-29T05:23:26.887Z,93.88
2018-05-29T05:24:26.768Z,95.12
2018-05-29T05:25:26.644Z,91.50
2018-05-29T05:26:26.518Z,86.63
2018-05-29T05:27:26.399Z,80.22
2018-05-29T05:28:26.279Z,77.08
2018-05-29T05:29:26.154Z,86.34
2018-05-29T05:30:26.034Z,98.37
2018-05-29T05:31:25.909Z,94.74
2018-05-29T05:32:25.787Z,91.16
2018-05-29T05:33:25.668Z,95.07
2018-05-29T05:34:25.580Z,90.78
2018-05-29T05:35:25.482Z,93.16
2018-05-29T05:36:25.299Z,94.98
2018-05-29T05:37:25.176Z,95.36
2018-05-29T05:38:25.055Z,97.08
2018-05-29T05:39:24.933Z,97.56
2018-05-29T05:40:24.811Z,94.31
2018-05-29T05:41:24.687Z,95.17
2018-05-29T05:42:24.571Z,94.98
2018-05-29T05:43:24.448Z,96.61
2018-05-29T05:44:24.322Z,97.08
2018-05-29T05:45:24.203Z,98.23
2018-05-29T05:46:24.080Z,98.99
2018-05-29T05:47:23.958Z,96.80
2018-05-29T05:48:23.838Z,93.16
2018-05-29T05:49:23.719Z,93.74
2018-05-29T05:50:23.595Z,97.18
2018-05-29T05:51:23.473Z,98.85
2018-05-29T05:52:23.349Z,99.90
2018-05-29T05:53:23.228Z,99.99
2018-05-29T05:54:23.110Z,99.99
2018-05-29T05:55:22.986Z,99.99
2018-05-29T05:56:22.864Z,99.99
2018-05-29T05:57:22.743Z,99.99
2018-05-29T05:58:22.619Z,99.99
2018-05-29T05:59:22.497Z,98.47
2018-05-29T06:00:22.376Z,97.99
2018-05-29T06:01:22.258Z,99.99
2018-05-29T06:02:22.140Z,99.62
2018-05-29T06:03:22.014Z,99.99
2018-05-29T06:04:21.892Z,99.99
2018-05-29T06:05:21.769Z,99.99
2018-05-29T06:06:21.653Z,99.99
2018-05-29T06:07:21.528Z,99.99
2018-05-29T06:08:21.405Z,99.99
2018-05-29T06:09:21.288Z,99.99
2018-05-29T06:10:21.166Z,99.99
2018-05-29T06:11:21.042Z,99.99
2018-05-29T06:12:20.922Z,99.99
2018-05-29T06:13:20.801Z,99.81
2018-05-29T06:14:20.681Z,99.99
2018-05-29T06:15:20.558Z,99.91
2018-05-29T06:16:20.451Z,99.99
2018-05-29T06:17:20.319Z,99.99
2018-05-29T06:18:20.198Z,99.99
2018-05-29T06:19:20.085Z,99.99
2018-05-29T06:20:19.958Z,98.05
2018-05-29T06:21:19.836Z,90.48
2018-05-29T06:22:19.713Z,92.49
2018-05-29T06:23:19.594Z,99.58
2018-05-29T06:24:19.539Z,99.99
2018-05-29T06:25:19.358Z,99.99
2018-05-29T06:26:19.232Z,99.99
2018-05-29T06:27:19.111Z,99.99
2018-05-29T06:28:18.993Z,99.99
2018-05-29T06:29:18.870Z,99.99
2018-05-29T06:30:18.752Z,99.99
2018-05-29T06:31:18.630Z,99.99
2018-05-29T06:32:18.509Z,99.99
2018-05-29T06:33:18.388Z,99.99
2018-05-29T06:34:18.268Z,99.99
2018-05-29T06:35:18.149Z,99.99
2018-05-29T06:36:18.026Z,99.99
2018-05-29T06:37:17.907Z,99.99
2018-05-29T06:38:17.802Z,99.99
2018-05-29T06:39:17.664Z,99.99
2018-05-29T06:40:17.544Z,99.99
2018-05-29T06:41:17.424Z,99.99
2018-05-29T06:42:17.304Z,99.99
2018-05-29T06:43:17.187Z,99.99
2018-05-29T06:44:17.065Z,99.99
2018-05-29T06:45:16.945Z,99.99
2018-05-29T06:46:16.824Z,99.34
2018-05-29T06:47:16.709Z,98.96
2018-05-29T06:48:16.583Z,99.72
2018-05-29T06:49:16.464Z,99.05
2018-05-29T06:50:16.346Z,89.37
2018-05-29T06:51:16.224Z,95.31
2018-05-29T06:52:16.106Z,95.89
2018-05-29T06:53:15.988Z,96.27
2018-05-29T06:54:15.865Z,97.56
2018-05-29T06:55:15.744Z,92.73
2018-05-29T06:56:15.624Z,97.09
2018-05-29T06:57:15.505Z,93.30
2018-05-29T06:58:15.388Z,91.14
2018-05-29T06:59:15.266Z,80.12
2018-05-29T07:00:15.146Z,81.66
2018-05-29T07:01:15.026Z,88.84
2018-05-29T07:02:14.906Z,95.56
2018-05-29T07:03:14.786Z,94.35
2018-05-29T07:04:14.702Z,87.02
2018-05-29T07:05:14.546Z,89.08
2018-05-29T07:06:14.430Z,91.19
2018-05-29T07:07:14.306Z,95.60
2018-05-29T07:08:14.190Z,96.08
2018-05-29T07:09:14.069Z,97.14
2018-05-29T07:10:13.952Z,88.51
2018-05-29T07:11:13.833Z,96.66
2018-05-29T07:12:13.711Z,99.99
2018-05-29T07:13:13.599Z,99.39
2018-05-29T07:14:13.473Z,98.53
2018-05-29T07:15:13.351Z,91.33
2018-05-29T07:16:13.232Z,95.75
2018-05-29T07:17:13.114Z,92.63
2018-05-29T07:18:12.995Z,88.79
2018-05-29T07:19:12.874Z,70.45
2018-05-29T07:20:12.754Z,72.37
2018-05-29T07:21:12.636Z,73.14
2018-05-29T07:22:12.517Z,75.77
2018-05-29T07:23:12.398Z,72.85
2018-05-29T07:24:12.282Z,67.13
2018-05-29T07:25:12.159Z,69.53
2018-05-29T07:26:12.043Z,66.46
2018-05-29T07:27:11.935Z,66.16
2018-05-29T07:28:11.806Z,69.72
2018-05-29T07:29:11.685Z,77.88
2018-05-29T07:30:11.565Z,83.54
2018-05-29T07:31:11.448Z,84.74
2018-05-29T07:32:11.330Z,86.14
2018-05-29T07:33:11.210Z,82.53
2018-05-29T07:34:11.092Z,76.00
2018-05-29T07:35:10.974Z,76.67
2018-05-29T07:36:10.856Z,75.23
2018-05-29T07:37:10.739Z,81.09
2018-05-29T07:38:10.616Z,85.37
2018-05-29T07:39:10.497Z,84.95
2018-05-29T07:40:10.382Z,88.93
2018-05-29T07:41:10.261Z,79.68
2018-05-29T07:42:10.146Z,82.37
2018-05-29T07:43:10.029Z,88.70
2018-05-29T07:44:09.906Z,84.58
2018-05-29T07:45:09.821Z,91.00
2018-05-29T07:46:09.669Z,84.86
2018-05-29T07:47:09.553Z,92.63
2018-05-29T07:48:09.437Z,86.15
2018-05-29T07:49:09.316Z,86.68
2018-05-29T07:50:09.196Z,78.80
2018-05-29T07:51:09.072Z,79.28
2018-05-29T07:52:08.962Z,88.11
2018-05-29T07:53:08.837Z,95.89
2018-05-29T07:54:08.720Z,97.19
2018-05-29T07:55:08.599Z,98.24
2018-05-29T07:56:08.483Z,98.05
2018-05-29T07:57:08.361Z,98.91
2018-05-29T07:58:08.241Z,99.39
2018-05-29T07:59:08.126Z,98.82
2018-05-29T08:00:08.005Z,98.82
2018-05-29T08:01:07.888Z,98.91
2018-05-29T08:02:07.766Z,99.99
2018-05-29T08:03:07.647Z,99.68
2018-05-29T08:04:07.528Z,99.34
2018-05-29T08:05:07.410Z,99.99
2018-05-29T08:06:07.291Z,95.84
2018-05-29T08:07:07.170Z,92.34
2018-05-29T08:08:07.056Z,91.91
2018-05-29T08:09:06.934Z,94.69
2018-05-29T08:10:06.817Z,97.66
2018-05-29T08:11:06.696Z,94.93
2018-05-29T08:12:06.580Z,92.57
2018-05-29T08:13:06.459Z,95.75
2018-05-29T08:14:06.346Z,94.54
2018-05-29T08:15:06.221Z,88.34
2018-05-29T08:16:06.112Z,86.61
2018-05-29T08:17:05.988Z,82.48
2018-05-29T08:18:05.868Z,91.99
2018-05-29T08:19:05.756Z,87.52
2018-05-29T08:20:05.631Z,79.58
2018-05-29T08:21:05.514Z,81.88
2018-05-29T08:22:05.400Z,83.62
2018-05-29T08:23:05.276Z,82.65
2018-05-29T08:24:05.159Z,81.70
2018-05-29T08:25:05.043Z,78.42
2018-05-29T08:26:04.924Z,71.65
2018-05-29T08:27:04.807Z,68.76
2018-05-29T08:28:04.690Z,76.26
2018-05-29T08:29:04.577Z,76.75
2018-05-29T08:30:04.457Z,80.73
2018-05-29T08:31:04.349Z,70.92
2018-05-29T08:32:04.221Z,70.09
2018-05-29T08:33:04.103Z,71.81
2018-05-29T08:34:03.988Z,69.70
2018-05-29T08:35:03.868Z,71.91
2018-05-29T08:36:03.752Z,72.33
2018-05-29T08:37:03.633Z,65.75
2018-05-29T08:38:03.517Z,68.74
2018-05-29T08:39:03.403Z,70.09
2018-05-29T08:40:03.287Z,74.22
2018-05-29T08:41:03.215Z,71.49
2018-05-29T08:42:03.048Z,67.45
2018-05-29T08:43:02.932Z,65.40
2018-05-29T08:44:02.814Z,65.11
2018-05-29T08:45:02.695Z,69.21
2018-05-29T08:46:02.581Z,69.12
2018-05-29T08:47:02.462Z,69.60
2018-05-29T08:48:02.347Z,73.92
2018-05-29T08:49:02.236Z,72.16
2018-05-29T08:50:02.118Z,75.52
2018-05-29T08:51:01.992Z,69.08
2018-05-29T08:52:01.883Z,67.93
2018-05-29T08:53:01.759Z,68.41
2018-05-29T08:54:01.641Z,70.04
2018-05-29T08:55:01.527Z,74.94
2018-05-29T08:56:01.405Z,75.67
2018-05-29T08:57:01.291Z,79.65
2018-05-29T08:58:01.173Z,79.46
2018-05-29T08:59:01.054Z,79.07
2018-05-29T09:00:00.938Z,82.43
2018-05-29T09:01:00.817Z,80.13
2018-05-29T09:02:00.701Z,78.21
2018-05-29T09:03:00.585Z,73.06
2018-05-29T09:04:00.476Z,76.32
2018-05-29T09:05:00.348Z,75.13
2018-05-29T09:06:00.229Z,75.38
2018-05-29T09:07:00.109Z,80.47
2018-05-29T09:07:59.997Z,87.10
2018-05-29T09:08:59.874Z,86.09
2018-05-29T09:09:59.759Z,84.17
2018-05-29T09:10:59.643Z,76.96
2018-05-29T09:11:59.522Z,75.04
2018-05-29T09:12:59.405Z,73.11
2018-05-29T09:13:59.286Z,73.88
2018-05-29T09:14:59.170Z,71.77
2018-05-29T09:15:59.054Z,73.85
2018-05-29T09:16:58.936Z,79.03
2018-05-29T09:17:58.816Z,75.67
2018-05-29T09:18:58.700Z,78.59
2018-05-29T09:19:58.599Z,77.53
2018-05-29T09:20:58.462Z,72.64
2018-05-29T09:21:58.345Z,75.42
2018-05-29T09:22:58.229Z,76.19
2018-05-29T09:23:58.111Z,80.04
2018-05-29T09:24:57.992Z,78.63
2018-05-29T09:25:57.877Z,74.65
2018-05-29T09:26:57.755Z,72.44
2018-05-29T09:27:57.639Z,77.73
2018-05-29T09:28:57.521Z,79.27
2018-05-29T09:29:57.437Z,81.13
2018-05-29T09:30:57.285Z,84.01
2018-05-29T09:31:57.200Z,72.44
2018-05-29T09:32:57.048Z,78.78
2018-05-29T09:33:56.930Z,69.75
2018-05-29T09:34:56.810Z,75.20
2018-05-29T09:35:56.695Z,80.86
2018-05-29T09:36:56.576Z,72.25
2018-05-29T09:37:56.460Z,71.29
2018-05-29T09:38:56.341Z,77.86
2018-05-29T09:39:56.221Z,78.63
2018-05-29T09:40:56.109Z,75.42
2018-05-29T09:41:55.993Z,67.54
2018-05-29T09:42:55.867Z,66.58
2018-05-29T09:43:55.750Z,68.76
2018-05-29T09:44:55.644Z,69.72
2018-05-29T09:45:55.619Z,68.85
2018-05-29T09:46:55.399Z,69.75
2018-05-29T09:47:55.280Z,64.28
2018-05-29T09:48:55.165Z,62.84
2018-05-29T09:49:55.043Z,67.00
2018-05-29T09:50:54.927Z,72.96
2018-05-29T09:51:54.808Z,78.96
2018-05-29T09:52:54.747Z,72.17
2018-05-29T09:53:54.576Z,70.43
2018-05-29T09:54:54.455Z,65.43
2018-05-29T09:55:54.338Z,64.50
2018-05-29T09:56:54.221Z,64.31
2018-05-29T09:57:54.102Z,66.42
2018-05-29T09:58:53.988Z,63.25
2018-05-29T09:59:53.871Z,62.38
2018-05-29T10:00:53.752Z,64.34
2018-05-29T10:01:53.637Z,60.49
2018-05-29T10:02:53.517Z,61.55
2018-05-29T10:03:53.405Z,63.38
2018-05-29T10:04:53.282Z,63.09
2018-05-29T10:05:53.167Z,65.05
2018-05-29T10:06:53.054Z,63.70
2018-05-29T10:07:52.940Z,61.00
2018-05-29T10:08:52.815Z,63.50
2018-05-29T10:09:52.699Z,62.09
2018-05-29T10:10:52.581Z,63.54
2018-05-29T10:11:52.466Z,58.62
2018-05-29T10:12:52.351Z,57.27
2018-05-29T10:13:52.234Z,58.04
2018-05-29T10:14:52.116Z,59.39
2018-05-29T10:15:52.001Z,59.39
2018-05-29T10:16:51.884Z,59.48
2018-05-29T10:17:51.769Z,60.35
2018-05-29T10:18:51.653Z,61.54
2018-05-29T10:19:51.536Z,60.19
2018-05-29T10:20:51.422Z,57.17
2018-05-29T10:21:51.304Z,59.87
2018-05-29T10:22:51.189Z,63.54
2018-05-29T10:23:51.081Z,62.79
2018-05-29T10:24:50.958Z,60.10
2018-05-29T10:25:50.841Z,60.55
2018-05-29T10:26:50.727Z,58.04
2018-05-29T10:27:50.610Z,61.99
2018-05-29T10:28:50.497Z,61.99
2018-05-29T10:29:50.380Z,59.58
2018-05-29T10:30:50.276Z,63.18
2018-05-29T10:31:50.147Z,58.17
2018-05-29T10:32:50.039Z,59.71
2018-05-29T10:33:49.917Z,56.72
2018-05-29T10:34:49.800Z,58.45
2018-05-29T10:35:49.688Z,60.89
2018-05-29T10:36:49.569Z,57.04
2018-05-29T10:37:49.457Z,56.65
2018-05-29T10:38:49.341Z,60.13
2018-05-29T10:39:49.228Z,59.35
2018-05-29T10:40:49.109Z,57.90
2018-05-29T10:41:48.994Z,56.58
2018-05-29T10:42:48.880Z,55.59
2018-05-29T10:43:48.763Z,55.27
2018-05-29T10:44:48.648Z,52.19
2018-05-29T10:45:48.533Z,56.04
2018-05-29T10:46:48.419Z,53.80
2018-05-29T10:47:48.303Z,55.22
2018-05-29T10:48:48.186Z,56.95
2018-05-29T10:49:48.074Z,55.79
2018-05-29T10:50:47.956Z,55.02
2018-05-29T10:51:47.850Z,57.85
2018-05-29T10:52:47.729Z,57.46
2018-05-29T10:53:47.617Z,55.34
2018-05-29T10:54:47.502Z,54.40
2018-05-29T10:55:47.383Z,54.69
2018-05-29T10:56:47.270Z,51.51
2018-05-29T10:57:47.157Z,52.25
2018-05-29T10:58:47.037Z,50.52
2018-05-29T10:59:46.925Z,52.95
2018-05-29T11:00:46.812Z,53.53
2018-05-29T11:01:46.695Z,55.98
2018-05-29T11:02:46.575Z,55.88
2018-05-29T11:03:46.463Z,58.00
2018-05-29T11:04:46.348Z,58.15
2018-05-29T11:05:46.232Z,59.89
2018-05-29T11:06:46.149Z,54.29
2018-05-29T11:07:46.001Z,54.82
2018-05-29T11:08:45.889Z,58.26
2018-05-29T11:09:45.776Z,59.52
2018-05-29T11:10:45.663Z,57.87
2018-05-29T11:11:45.545Z,56.59
2018-05-29T11:12:45.434Z,58.30
2018-05-29T11:13:45.317Z,59.55
2018-05-29T11:14:45.200Z,60.86
2018-05-29T11:15:45.088Z,58.10
2018-05-29T11:16:44.973Z,56.46
2018-05-29T11:17:44.856Z,57.90
2018-05-29T11:18:44.742Z,58.58
2018-05-29T11:19:44.631Z,58.29
2018-05-29T11:20:44.514Z,58.48
2018-05-29T11:21:44.397Z,57.14
2018-05-29T11:22:44.285Z,57.09
2018-05-29T11:23:44.171Z,57.84
2018-05-29T11:24:44.055Z,58.51
2018-05-29T11:25:43.941Z,58.10
2018-05-29T11:26:43.825Z,58.39
2018-05-29T11:27:43.715Z,59.64
2018-05-29T11:28:43.596Z,60.77
2018-05-29T11:29:43.481Z,59.87
2018-05-29T11:30:43.367Z,60.68
2018-05-29T11:31:43.253Z,63.12
2018-05-29T11:32:43.138Z,62.45
2018-05-29T11:33:43.023Z,62.45
2018-05-29T11:34:42.906Z,62.15
2018-05-29T11:35:42.793Z,62.15
2018-05-29T11:36:42.679Z,60.42
2018-05-29T11:37:42.562Z,61.19
2018-05-29T11:38:42.449Z,60.74
2018-05-29T11:39:42.334Z,61.71
2018-05-29T11:40:42.219Z,60.55
2018-05-29T11:41:42.104Z,59.78
2018-05-29T11:42:41.988Z,59.45
2018-05-29T11:43:41.872Z,57.96
2018-05-29T11:44:41.758Z,55.31
2018-05-29T11:45:41.642Z,53.72
2018-05-29T11:46:41.526Z,51.72
2018-05-29T11:47:41.413Z,49.49
2018-05-29T11:48:41.301Z,50.45
2018-05-29T11:49:41.184Z,49.00
2018-05-29T11:50:41.072Z,50.50
2018-05-29T11:51:40.959Z,45.93
2018-05-29T11:52:40.843Z,46.34
2018-05-29T11:53:40.727Z,47.72
2018-05-29T11:54:40.617Z,50.28
2018-05-29T11:55:40.501Z,48.90
2018-05-29T11:56:40.389Z,49.97
2018-05-29T11:57:40.278Z,52.67
2018-05-29T11:58:40.163Z,48.30
2018-05-29T11:59:40.048Z,49.37
2018-05-29T12:00:40.009Z,46.92
2018-05-29T12:01:39.884Z,48.76
2018-05-29T12:02:39.711Z,50.40
2018-05-29T12:03:39.594Z,48.47
2018-05-29T12:04:39.477Z,47.12
2018-05-29T12:05:39.367Z,43.16
2018-05-29T12:06:39.252Z,44.22
2018-05-29T12:07:39.199Z,45.94
2018-05-29T12:08:39.023Z,44.97
2018-05-29T12:09:38.910Z,44.59
2018-05-29T12:10:38.795Z,47.72
2018-05-29T12:11:38.684Z,49.75
2018-05-29T12:12:38.571Z,49.07
2018-05-29T12:13:38.455Z,47.82
2018-05-29T12:14:38.337Z,47.34
2018-05-29T12:15:38.226Z,45.21
2018-05-29T12:16:38.112Z,45.51
2018-05-29T12:17:38.000Z,45.14
2018-05-29T12:18:37.881Z,45.82
2018-05-29T12:19:37.766Z,44.66
2018-05-29T12:20:37.654Z,45.92
2018-05-29T12:21:37.539Z,47.72
2018-05-29T12:22:37.421Z,47.12
2018-05-29T12:23:37.309Z,47.41
2018-05-29T12:24:37.191Z,46.73
2018-05-29T12:25:37.080Z,46.93
2018-05-29T12:26:36.966Z,48.97
2018-05-29T12:27:36.849Z,51.29
2018-05-29T12:28:36.732Z,51.39
2018-05-29T12:29:36.620Z,51.03
2018-05-29T12:30:36.503Z,49.19
2018-05-29T12:31:36.388Z,48.13
2018-05-29T12:32:36.274Z,49.48
2018-05-29T12:33:36.196Z,47.27
2018-05-29T12:34:36.045Z,46.28
2018-05-29T12:35:35.926Z,45.60
2018-05-29T12:36:35.814Z,46.78
2018-05-29T12:37:35.698Z,45.91
2018-05-29T12:38:35.583Z,46.95
2018-05-29T12:39:35.468Z,44.87
2018-05-29T12:40:35.352Z,41.98
2018-05-29T12:41:35.239Z,44.29
2018-05-29T12:42:35.124Z,44.95
2018-05-29T12:43:35.008Z,43.98
2018-05-29T12:44:34.942Z,44.54
2018-05-29T12:45:34.781Z,46.47
2018-05-29T12:46:34.662Z,48.59
2018-05-29T12:47:34.557Z,48.52
2018-05-29T12:48:34.437Z,49.70
2018-05-29T12:49:34.321Z,45.98
2018-05-29T12:50:34.203Z,44.24